sensor_id;sensor_type;location;lat;lon;timestamp;P1;durP1;ratioP1;P2;durP2;ratioP2
4569;SDS011;2297;51.442;6.996;2022-07-29T00:00:05;3.00;;;1.50;;
4569;SDS011;2297;51.442;6.996;2022-07-29T00:02:34;4.10;;;1.83;;
4569;SDS011;2297;51.442;6.996;2022-07-29T00:05:01;3.63;;;1.50;;
4569;SDS011;2297;51.442;6.996;2022-07-29T00:07:29;9.25;;;1.80;;
4569;SDS011;2297;51.442;6.996;2022-07-29T00:09:56;6.43;;;1.90;;
4569;SDS011;2297;51.442;6.996;2022-07-29T00:12:24;4.35;;;1.63;;
4569;SDS011;2297;51.442;6.996;2022-07-29T00:14:51;4.88;;;1.55;;
4569;SDS011;2297;51.442;6.996;2022-07-29T00:17:18;3.70;;;1.80;;
4569;SDS011;2297;51.442;6.996;2022-07-29T00:19:45;5.97;;;1.48;;
4569;SDS011;2297;51.442;6.996;2022-07-29T00:22:12;6.05;;;1.98;;
4569;SDS011;2297;51.442;6.996;2022-07-29T00:24:38;5.40;;;1.80;;
4569;SDS011;2297;51.442;6.996;2022-07-29T00:27:07;6.15;;;1.63;;
4569;SDS011;2297;51.442;6.996;2022-07-29T00:29:35;4.28;;;1.50;;
4569;SDS011;2297;51.442;6.996;2022-07-29T00:32:01;4.82;;;2.05;;
4569;SDS011;2297;51.442;6.996;2022-07-29T00:34:28;2.78;;;1.60;;
4569;SDS011;2297;51.442;6.996;2022-07-29T00:37:12;3.25;;;1.60;;
4569;SDS011;2297;51.442;6.996;2022-07-29T00:39:39;5.18;;;1.83;;
4569;SDS011;2297;51.442;6.996;2022-07-29T00:42:06;3.17;;;1.80;;
4569;SDS011;2297;51.442;6.996;2022-07-29T00:44:37;8.82;;;2.00;;
4569;SDS011;2297;51.442;6.996;2022-07-29T00:47:04;6.10;;;2.28;;
4569;SDS011;2297;51.442;6.996;2022-07-29T00:49:31;9.48;;;2.63;;
4569;SDS011;2297;51.442;6.996;2022-07-29T00:51:58;6.05;;;2.65;;
4569;SDS011;2297;51.442;6.996;2022-07-29T00:54:27;5.10;;;1.80;;
4569;SDS011;2297;51.442;6.996;2022-07-29T00:56:54;3.85;;;1.80;;
4569;SDS011;2297;51.442;6.996;2022-07-29T00:59:22;5.25;;;1.80;;
4569;SDS011;2297;51.442;6.996;2022-07-29T01:01:51;5.68;;;2.10;;
4569;SDS011;2297;51.442;6.996;2022-07-29T01:04:18;5.63;;;1.50;;
4569;SDS011;2297;51.442;6.996;2022-07-29T01:06:45;5.45;;;1.70;;
4569;SDS011;2297;51.442;6.996;2022-07-29T01:09:12;7.32;;;1.60;;
4569;SDS011;2297;51.442;6.996;2022-07-29T01:11:39;6.03;;;1.85;;
4569;SDS011;2297;51.442;6.996;2022-07-29T01:14:07;4.95;;;1.85;;
4569;SDS011;2297;51.442;6.996;2022-07-29T01:16:36;3.92;;;1.80;;
4569;SDS011;2297;51.442;6.996;2022-07-29T01:19:13;5.05;;;2.15;;
4569;SDS011;2297;51.442;6.996;2022-07-29T01:21:56;4.57;;;1.80;;
4569;SDS011;2297;51.442;6.996;2022-07-29T01:24:39;10.18;;;2.63;;
4569;SDS011;2297;51.442;6.996;2022-07-29T01:27:36;7.57;;;2.00;;
4569;SDS011;2297;51.442;6.996;2022-07-29T01:30:09;6.68;;;1.80;;
4569;SDS011;2297;51.442;6.996;2022-07-29T01:32:37;3.75;;;1.67;;
4569;SDS011;2297;51.442;6.996;2022-07-29T01:35:06;2.50;;;1.60;;
4569;SDS011;2297;51.442;6.996;2022-07-29T01:37:38;4.28;;;2.13;;
4569;SDS011;2297;51.442;6.996;2022-07-29T01:40:11;8.10;;;2.42;;
4569;SDS011;2297;51.442;6.996;2022-07-29T01:42:44;3.78;;;1.80;;
4569;SDS011;2297;51.442;6.996;2022-07-29T01:45:18;5.00;;;1.98;;
4569;SDS011;2297;51.442;6.996;2022-07-29T01:47:52;2.75;;;1.80;;
4569;SDS011;2297;51.442;6.996;2022-07-29T01:50:26;6.75;;;2.03;;
4569;SDS011;2297;51.442;6.996;2022-07-29T01:52:58;5.57;;;1.73;;
4569;SDS011;2297;51.442;6.996;2022-07-29T01:55:27;3.38;;;1.75;;
4569;SDS011;2297;51.442;6.996;2022-07-29T01:57:57;2.75;;;1.60;;
4569;SDS011;2297;51.442;6.996;2022-07-29T02:00:27;7.35;;;2.00;;
4569;SDS011;2297;51.442;6.996;2022-07-29T02:02:56;8.00;;;1.80;;
4569;SDS011;2297;51.442;6.996;2022-07-29T02:05:27;5.75;;;1.90;;
4569;SDS011;2297;51.442;6.996;2022-07-29T02:07:56;9.98;;;1.88;;
4569;SDS011;2297;51.442;6.996;2022-07-29T02:10:26;4.75;;;2.10;;
4569;SDS011;2297;51.442;6.996;2022-07-29T02:12:56;6.65;;;1.77;;
4569;SDS011;2297;51.442;6.996;2022-07-29T02:15:24;6.80;;;1.95;;
4569;SDS011;2297;51.442;6.996;2022-07-29T02:17:55;5.05;;;1.80;;
4569;SDS011;2297;51.442;6.996;2022-07-29T02:20:26;3.03;;;1.60;;
4569;SDS011;2297;51.442;6.996;2022-07-29T02:22:57;6.97;;;1.83;;
4569;SDS011;2297;51.442;6.996;2022-07-29T02:25:25;4.13;;;1.70;;
4569;SDS011;2297;51.442;6.996;2022-07-29T02:27:53;5.25;;;1.95;;
4569;SDS011;2297;51.442;6.996;2022-07-29T02:30:21;5.55;;;2.42;;
4569;SDS011;2297;51.442;6.996;2022-07-29T02:32:50;4.28;;;2.08;;
4569;SDS011;2297;51.442;6.996;2022-07-29T02:35:18;4.55;;;1.80;;
4569;SDS011;2297;51.442;6.996;2022-07-29T02:37:47;6.68;;;1.90;;
4569;SDS011;2297;51.442;6.996;2022-07-29T02:40:35;3.72;;;1.95;;
4569;SDS011;2297;51.442;6.996;2022-07-29T02:43:05;6.00;;;1.80;;
4569;SDS011;2297;51.442;6.996;2022-07-29T02:45:33;5.38;;;1.98;;
4569;SDS011;2297;51.442;6.996;2022-07-29T02:48:02;3.17;;;1.70;;
4569;SDS011;2297;51.442;6.996;2022-07-29T02:50:33;2.88;;;1.80;;
4569;SDS011;2297;51.442;6.996;2022-07-29T02:53:05;4.35;;;2.05;;
4569;SDS011;2297;51.442;6.996;2022-07-29T02:55:37;4.10;;;1.80;;
4569;SDS011;2297;51.442;6.996;2022-07-29T02:58:08;6.07;;;2.03;;
4569;SDS011;2297;51.442;6.996;2022-07-29T03:00:41;6.20;;;1.95;;
4569;SDS011;2297;51.442;6.996;2022-07-29T03:03:12;7.50;;;2.00;;
4569;SDS011;2297;51.442;6.996;2022-07-29T03:05:42;5.68;;;1.90;;
4569;SDS011;2297;51.442;6.996;2022-07-29T03:08:09;8.73;;;1.90;;
4569;SDS011;2297;51.442;6.996;2022-07-29T03:10:38;6.05;;;1.90;;
4569;SDS011;2297;51.442;6.996;2022-07-29T03:13:09;4.57;;;2.55;;
4569;SDS011;2297;51.442;6.996;2022-07-29T03:15:37;6.82;;;1.92;;
4569;SDS011;2297;51.442;6.996;2022-07-29T03:18:05;5.63;;;1.90;;
4569;SDS011;2297;51.442;6.996;2022-07-29T03:20:34;4.25;;;1.80;;
4569;SDS011;2297;51.442;6.996;2022-07-29T03:23:01;3.78;;;1.90;;
4569;SDS011;2297;51.442;6.996;2022-07-29T03:25:28;3.85;;;1.55;;
4569;SDS011;2297;51.442;6.996;2022-07-29T03:27:54;7.18;;;2.00;;
4569;SDS011;2297;51.442;6.996;2022-07-29T03:30:21;6.53;;;2.00;;
4569;SDS011;2297;51.442;6.996;2022-07-29T03:32:51;3.72;;;1.63;;
4569;SDS011;2297;51.442;6.996;2022-07-29T03:35:18;4.65;;;2.08;;
4569;SDS011;2297;51.442;6.996;2022-07-29T03:37:47;4.80;;;2.40;;
4569;SDS011;2297;51.442;6.996;2022-07-29T03:40:15;4.35;;;2.10;;
4569;SDS011;2297;51.442;6.996;2022-07-29T03:42:45;6.35;;;1.92;;
4569;SDS011;2297;51.442;6.996;2022-07-29T03:45:13;5.57;;;1.98;;
4569;SDS011;2297;51.442;6.996;2022-07-29T03:47:47;2.78;;;1.80;;
4569;SDS011;2297;51.442;6.996;2022-07-29T03:50:16;2.80;;;1.70;;
4569;SDS011;2297;51.442;6.996;2022-07-29T03:52:46;5.80;;;2.03;;
4569;SDS011;2297;51.442;6.996;2022-07-29T03:55:14;6.45;;;1.70;;
4569;SDS011;2297;51.442;6.996;2022-07-29T03:57:41;7.28;;;1.88;;
4569;SDS011;2297;51.442;6.996;2022-07-29T04:00:10;8.50;;;2.25;;
4569;SDS011;2297;51.442;6.996;2022-07-29T04:02:38;5.82;;;1.92;;
4569;SDS011;2297;51.442;6.996;2022-07-29T04:05:10;3.95;;;1.80;;
4569;SDS011;2297;51.442;6.996;2022-07-29T04:07:38;3.15;;;1.77;;
4569;SDS011;2297;51.442;6.996;2022-07-29T04:10:07;3.33;;;1.67;;
4569;SDS011;2297;51.442;6.996;2022-07-29T04:12:34;7.50;;;1.90;;
4569;SDS011;2297;51.442;6.996;2022-07-29T04:15:00;4.38;;;1.70;;
4569;SDS011;2297;51.442;6.996;2022-07-29T04:17:27;5.63;;;1.80;;
4569;SDS011;2297;51.442;6.996;2022-07-29T04:19:54;5.93;;;1.88;;
4569;SDS011;2297;51.442;6.996;2022-07-29T04:22:22;4.05;;;1.77;;
4569;SDS011;2297;51.442;6.996;2022-07-29T04:24:48;3.35;;;1.70;;
4569;SDS011;2297;51.442;6.996;2022-07-29T04:27:16;3.28;;;1.67;;
4569;SDS011;2297;51.442;6.996;2022-07-29T04:29:43;7.70;;;1.83;;
4569;SDS011;2297;51.442;6.996;2022-07-29T04:32:10;5.63;;;1.98;;
4569;SDS011;2297;51.442;6.996;2022-07-29T04:34:36;2.85;;;1.70;;
4569;SDS011;2297;51.442;6.996;2022-07-29T04:37:03;4.22;;;1.83;;
4569;SDS011;2297;51.442;6.996;2022-07-29T04:39:30;5.85;;;1.98;;
4569;SDS011;2297;51.442;6.996;2022-07-29T04:41:56;5.90;;;1.92;;
4569;SDS011;2297;51.442;6.996;2022-07-29T04:44:24;3.60;;;1.70;;
4569;SDS011;2297;51.442;6.996;2022-07-29T04:46:51;3.22;;;1.70;;
4569;SDS011;2297;51.442;6.996;2022-07-29T04:49:18;9.45;;;2.08;;
4569;SDS011;2297;51.442;6.996;2022-07-29T04:51:45;3.85;;;1.70;;
4569;SDS011;2297;51.442;6.996;2022-07-29T04:54:11;4.80;;;1.65;;
4569;SDS011;2297;51.442;6.996;2022-07-29T04:56:38;6.22;;;2.00;;
4569;SDS011;2297;51.442;6.996;2022-07-29T04:59:05;6.35;;;1.85;;
4569;SDS011;2297;51.442;6.996;2022-07-29T05:01:41;9.55;;;2.13;;
4569;SDS011;2297;51.442;6.996;2022-07-29T05:04:08;6.32;;;1.83;;
4569;SDS011;2297;51.442;6.996;2022-07-29T05:06:35;6.20;;;2.38;;
4569;SDS011;2297;51.442;6.996;2022-07-29T05:09:02;7.95;;;2.70;;
4569;SDS011;2297;51.442;6.996;2022-07-29T05:11:28;8.75;;;2.72;;
4569;SDS011;2297;51.442;6.996;2022-07-29T05:13:55;9.95;;;2.88;;
4569;SDS011;2297;51.442;6.996;2022-07-29T05:16:22;9.65;;;3.20;;
4569;SDS011;2297;51.442;6.996;2022-07-29T05:18:50;7.55;;;2.60;;
4569;SDS011;2297;51.442;6.996;2022-07-29T05:21:16;5.78;;;2.03;;
4569;SDS011;2297;51.442;6.996;2022-07-29T05:23:43;3.38;;;1.65;;
4569;SDS011;2297;51.442;6.996;2022-07-29T05:26:09;8.15;;;2.63;;
4569;SDS011;2297;51.442;6.996;2022-07-29T05:28:37;5.93;;;2.42;;
4569;SDS011;2297;51.442;6.996;2022-07-29T05:31:03;4.32;;;1.90;;
4569;SDS011;2297;51.442;6.996;2022-07-29T05:33:30;4.45;;;2.30;;
4569;SDS011;2297;51.442;6.996;2022-07-29T05:35:58;7.25;;;2.10;;
4569;SDS011;2297;51.442;6.996;2022-07-29T05:38:25;6.85;;;2.28;;
4569;SDS011;2297;51.442;6.996;2022-07-29T05:40:51;10.23;;;2.58;;
4569;SDS011;2297;51.442;6.996;2022-07-29T05:43:18;8.50;;;2.55;;
4569;SDS011;2297;51.442;6.996;2022-07-29T05:45:45;10.07;;;2.58;;
4569;SDS011;2297;51.442;6.996;2022-07-29T05:48:12;8.73;;;2.17;;
4569;SDS011;2297;51.442;6.996;2022-07-29T05:50:39;4.03;;;2.15;;
4569;SDS011;2297;51.442;6.996;2022-07-29T05:53:07;8.40;;;2.30;;
4569;SDS011;2297;51.442;6.996;2022-07-29T05:55:33;6.28;;;2.45;;
4569;SDS011;2297;51.442;6.996;2022-07-29T05:58:00;5.65;;;2.30;;
4569;SDS011;2297;51.442;6.996;2022-07-29T06:00:27;8.35;;;2.53;;
4569;SDS011;2297;51.442;6.996;2022-07-29T06:02:54;4.43;;;2.40;;
4569;SDS011;2297;51.442;6.996;2022-07-29T06:05:21;5.95;;;2.55;;
4569;SDS011;2297;51.442;6.996;2022-07-29T06:10:37;3.65;;;2.28;;
4569;SDS011;2297;51.442;6.996;2022-07-29T06:13:04;8.13;;;2.13;;
4569;SDS011;2297;51.442;6.996;2022-07-29T06:15:31;6.78;;;2.58;;
4569;SDS011;2297;51.442;6.996;2022-07-29T06:17:58;6.82;;;2.40;;
4569;SDS011;2297;51.442;6.996;2022-07-29T06:20:24;6.43;;;2.60;;
4569;SDS011;2297;51.442;6.996;2022-07-29T06:22:51;6.72;;;2.90;;
4569;SDS011;2297;51.442;6.996;2022-07-29T06:25:20;6.53;;;3.08;;
4569;SDS011;2297;51.442;6.996;2022-07-29T06:27:46;6.55;;;2.50;;
4569;SDS011;2297;51.442;6.996;2022-07-29T06:30:13;7.88;;;3.22;;
4569;SDS011;2297;51.442;6.996;2022-07-29T06:32:40;5.68;;;2.60;;
4569;SDS011;2297;51.442;6.996;2022-07-29T06:35:07;7.90;;;2.70;;
4569;SDS011;2297;51.442;6.996;2022-07-29T06:37:34;10.50;;;2.60;;
4569;SDS011;2297;51.442;6.996;2022-07-29T06:40:01;7.25;;;2.95;;
4569;SDS011;2297;51.442;6.996;2022-07-29T06:42:46;8.57;;;3.20;;
4569;SDS011;2297;51.442;6.996;2022-07-29T06:45:14;4.93;;;2.35;;
4569;SDS011;2297;51.442;6.996;2022-07-29T06:47:41;6.30;;;2.70;;
4569;SDS011;2297;51.442;6.996;2022-07-29T06:50:08;5.38;;;2.35;;
4569;SDS011;2297;51.442;6.996;2022-07-29T06:52:37;5.32;;;2.92;;
4569;SDS011;2297;51.442;6.996;2022-07-29T06:55:04;3.53;;;2.20;;
4569;SDS011;2297;51.442;6.996;2022-07-29T06:57:31;6.35;;;2.30;;
4569;SDS011;2297;51.442;6.996;2022-07-29T06:59:59;5.80;;;2.75;;
4569;SDS011;2297;51.442;6.996;2022-07-29T07:02:29;5.18;;;2.80;;
4569;SDS011;2297;51.442;6.996;2022-07-29T07:04:55;6.28;;;3.95;;
4569;SDS011;2297;51.442;6.996;2022-07-29T07:07:22;6.43;;;3.10;;
4569;SDS011;2297;51.442;6.996;2022-07-29T07:09:49;8.88;;;2.92;;
4569;SDS011;2297;51.442;6.996;2022-07-29T07:12:15;4.75;;;2.90;;
4569;SDS011;2297;51.442;6.996;2022-07-29T07:14:42;7.78;;;2.92;;
4569;SDS011;2297;51.442;6.996;2022-07-29T07:17:10;8.93;;;3.67;;
4569;SDS011;2297;51.442;6.996;2022-07-29T07:19:37;7.88;;;2.85;;
4569;SDS011;2297;51.442;6.996;2022-07-29T07:22:03;7.22;;;3.17;;
4569;SDS011;2297;51.442;6.996;2022-07-29T07:24:30;12.02;;;3.58;;
4569;SDS011;2297;51.442;6.996;2022-07-29T07:26:57;6.85;;;2.53;;
4569;SDS011;2297;51.442;6.996;2022-07-29T07:29:23;3.95;;;2.25;;
4569;SDS011;2297;51.442;6.996;2022-07-29T07:31:50;7.45;;;2.50;;
4569;SDS011;2297;51.442;6.996;2022-07-29T07:34:18;6.40;;;2.50;;
4569;SDS011;2297;51.442;6.996;2022-07-29T07:36:45;10.75;;;2.97;;
4569;SDS011;2297;51.442;6.996;2022-07-29T07:39:11;7.90;;;2.72;;
4569;SDS011;2297;51.442;6.996;2022-07-29T07:41:38;6.57;;;2.88;;
4569;SDS011;2297;51.442;6.996;2022-07-29T07:44:05;10.90;;;2.70;;
4569;SDS011;2297;51.442;6.996;2022-07-29T07:46:32;6.72;;;2.45;;
4569;SDS011;2297;51.442;6.996;2022-07-29T07:48:58;7.85;;;2.90;;
4569;SDS011;2297;51.442;6.996;2022-07-29T07:51:26;6.03;;;2.60;;
4569;SDS011;2297;51.442;6.996;2022-07-29T07:53:53;6.90;;;2.97;;
4569;SDS011;2297;51.442;6.996;2022-07-29T07:56:19;6.28;;;2.92;;
4569;SDS011;2297;51.442;6.996;2022-07-29T07:58:46;4.05;;;2.47;;
4569;SDS011;2297;51.442;6.996;2022-07-29T08:01:13;5.25;;;3.00;;
4569;SDS011;2297;51.442;6.996;2022-07-29T08:03:43;4.55;;;2.50;;
4569;SDS011;2297;51.442;6.996;2022-07-29T08:06:10;5.43;;;2.78;;
4569;SDS011;2297;51.442;6.996;2022-07-29T08:08:38;4.43;;;2.50;;
4569;SDS011;2297;51.442;6.996;2022-07-29T08:11:05;6.00;;;3.22;;
4569;SDS011;2297;51.442;6.996;2022-07-29T08:13:31;7.07;;;2.92;;
4569;SDS011;2297;51.442;6.996;2022-07-29T08:15:58;7.88;;;3.00;;
4569;SDS011;2297;51.442;6.996;2022-07-29T08:18:26;8.95;;;2.70;;
4569;SDS011;2297;51.442;6.996;2022-07-29T08:20:54;7.60;;;3.30;;
4569;SDS011;2297;51.442;6.996;2022-07-29T08:23:21;5.68;;;2.92;;
4569;SDS011;2297;51.442;6.996;2022-07-29T08:25:50;7.32;;;2.78;;
4569;SDS011;2297;51.442;6.996;2022-07-29T08:28:16;8.48;;;3.08;;
4569;SDS011;2297;51.442;6.996;2022-07-29T08:30:44;9.52;;;2.97;;
4569;SDS011;2297;51.442;6.996;2022-07-29T08:33:10;7.03;;;3.60;;
4569;SDS011;2297;51.442;6.996;2022-07-29T08:35:38;6.25;;;3.40;;
4569;SDS011;2297;51.442;6.996;2022-07-29T08:38:05;9.45;;;3.63;;
4569;SDS011;2297;51.442;6.996;2022-07-29T08:40:32;8.40;;;3.63;;
4569;SDS011;2297;51.442;6.996;2022-07-29T08:43:03;10.95;;;3.70;;
4569;SDS011;2297;51.442;6.996;2022-07-29T08:45:41;9.40;;;3.60;;
4569;SDS011;2297;51.442;6.996;2022-07-29T08:48:09;10.32;;;3.50;;
4569;SDS011;2297;51.442;6.996;2022-07-29T08:50:37;11.00;;;3.65;;
4569;SDS011;2297;51.442;6.996;2022-07-29T08:53:05;7.60;;;3.78;;
4569;SDS011;2297;51.442;6.996;2022-07-29T08:55:33;11.20;;;4.07;;
4569;SDS011;2297;51.442;6.996;2022-07-29T08:58:01;8.77;;;3.72;;
4569;SDS011;2297;51.442;6.996;2022-07-29T09:00:28;8.25;;;3.72;;
4569;SDS011;2297;51.442;6.996;2022-07-29T09:02:56;11.00;;;3.70;;
4569;SDS011;2297;51.442;6.996;2022-07-29T09:05:24;7.15;;;3.70;;
4569;SDS011;2297;51.442;6.996;2022-07-29T09:07:52;9.80;;;3.75;;
4569;SDS011;2297;51.442;6.996;2022-07-29T09:10:19;8.65;;;3.75;;
4569;SDS011;2297;51.442;6.996;2022-07-29T09:12:46;7.63;;;3.70;;
4569;SDS011;2297;51.442;6.996;2022-07-29T09:15:15;11.75;;;4.35;;
4569;SDS011;2297;51.442;6.996;2022-07-29T09:17:42;9.35;;;3.85;;
4569;SDS011;2297;51.442;6.996;2022-07-29T09:20:10;11.10;;;3.95;;
4569;SDS011;2297;51.442;6.996;2022-07-29T09:22:38;7.75;;;3.95;;
4569;SDS011;2297;51.442;6.996;2022-07-29T09:25:05;10.45;;;3.72;;
4569;SDS011;2297;51.442;6.996;2022-07-29T09:27:32;7.70;;;4.20;;
4569;SDS011;2297;51.442;6.996;2022-07-29T09:30:03;10.38;;;4.45;;
4569;SDS011;2297;51.442;6.996;2022-07-29T09:32:32;13.10;;;4.70;;
4569;SDS011;2297;51.442;6.996;2022-07-29T09:35:20;8.88;;;4.32;;
4569;SDS011;2297;51.442;6.996;2022-07-29T09:37:48;8.68;;;3.80;;
4569;SDS011;2297;51.442;6.996;2022-07-29T09:40:16;7.95;;;3.85;;
4569;SDS011;2297;51.442;6.996;2022-07-29T09:52:07;14.43;;;4.25;;
4569;SDS011;2297;51.442;6.996;2022-07-29T09:54:36;7.28;;;4.22;;
4569;SDS011;2297;51.442;6.996;2022-07-29T09:57:03;9.05;;;4.50;;
4569;SDS011;2297;51.442;6.996;2022-07-29T09:59:31;6.20;;;3.50;;
4569;SDS011;2297;51.442;6.996;2022-07-29T10:01:58;9.85;;;4.10;;
4569;SDS011;2297;51.442;6.996;2022-07-29T10:04:35;11.38;;;4.50;;
4569;SDS011;2297;51.442;6.996;2022-07-29T10:07:04;10.15;;;4.22;;
4569;SDS011;2297;51.442;6.996;2022-07-29T10:09:32;6.32;;;4.03;;
4569;SDS011;2297;51.442;6.996;2022-07-29T10:14:43;9.82;;;4.53;;
4569;SDS011;2297;51.442;6.996;2022-07-29T10:17:10;7.05;;;4.05;;
4569;SDS011;2297;51.442;6.996;2022-07-29T10:19:37;6.95;;;3.92;;
4569;SDS011;2297;51.442;6.996;2022-07-29T10:22:05;10.85;;;4.60;;
4569;SDS011;2297;51.442;6.996;2022-07-29T10:24:35;12.43;;;4.18;;
4569;SDS011;2297;51.442;6.996;2022-07-29T10:27:03;11.35;;;4.28;;
4569;SDS011;2297;51.442;6.996;2022-07-29T10:29:31;8.38;;;4.10;;
4569;SDS011;2297;51.442;6.996;2022-07-29T10:32:13;11.77;;;4.80;;
4569;SDS011;2297;51.442;6.996;2022-07-29T10:35:01;9.15;;;4.20;;
4569;SDS011;2297;51.442;6.996;2022-07-29T10:37:43;10.73;;;4.85;;
4569;SDS011;2297;51.442;6.996;2022-07-29T10:40:28;11.63;;;4.57;;
4569;SDS011;2297;51.442;6.996;2022-07-29T10:43:21;7.15;;;4.70;;
4569;SDS011;2297;51.442;6.996;2022-07-29T10:45:54;6.05;;;4.03;;
4569;SDS011;2297;51.442;6.996;2022-07-29T10:48:22;10.10;;;4.22;;
4569;SDS011;2297;51.442;6.996;2022-07-29T10:50:53;9.73;;;5.10;;
4569;SDS011;2297;51.442;6.996;2022-07-29T10:53:21;7.85;;;4.43;;
4569;SDS011;2297;51.442;6.996;2022-07-29T10:55:49;10.50;;;3.78;;
4569;SDS011;2297;51.442;6.996;2022-07-29T10:58:18;9.80;;;3.90;;
4569;SDS011;2297;51.442;6.996;2022-07-29T11:00:47;9.90;;;4.38;;
4569;SDS011;2297;51.442;6.996;2022-07-29T11:06:10;13.70;;;4.10;;
4569;SDS011;2297;51.442;6.996;2022-07-29T11:08:37;9.32;;;4.40;;
4569;SDS011;2297;51.442;6.996;2022-07-29T11:14:07;9.50;;;5.22;;
4569;SDS011;2297;51.442;6.996;2022-07-29T11:19:25;9.35;;;5.15;;
4569;SDS011;2297;51.442;6.996;2022-07-29T11:21:52;9.10;;;4.18;;
4569;SDS011;2297;51.442;6.996;2022-07-29T11:24:20;8.90;;;3.92;;
4569;SDS011;2297;51.442;6.996;2022-07-29T11:32:36;5.03;;;3.47;;
4569;SDS011;2297;51.442;6.996;2022-07-29T11:35:11;8.05;;;4.72;;
4569;SDS011;2297;51.442;6.996;2022-07-29T11:37:39;6.63;;;3.90;;
4569;SDS011;2297;51.442;6.996;2022-07-29T11:42:52;9.75;;;4.55;;
4569;SDS011;2297;51.442;6.996;2022-07-29T11:45:20;6.05;;;4.15;;
4569;SDS011;2297;51.442;6.996;2022-07-29T11:47:52;7.25;;;4.00;;
4569;SDS011;2297;51.442;6.996;2022-07-29T11:50:30;6.40;;;3.95;;
4569;SDS011;2297;51.442;6.996;2022-07-29T11:52:59;9.70;;;3.67;;
4569;SDS011;2297;51.442;6.996;2022-07-29T11:55:27;8.48;;;3.10;;
4569;SDS011;2297;51.442;6.996;2022-07-29T11:57:56;9.35;;;4.15;;
4569;SDS011;2297;51.442;6.996;2022-07-29T12:00:28;6.13;;;3.30;;
4569;SDS011;2297;51.442;6.996;2022-07-29T12:02:57;8.45;;;2.95;;
4569;SDS011;2297;51.442;6.996;2022-07-29T12:05:31;4.20;;;3.10;;
4569;SDS011;2297;51.442;6.996;2022-07-29T12:08:07;7.70;;;2.92;;
4569;SDS011;2297;51.442;6.996;2022-07-29T12:10:35;5.28;;;2.72;;
4569;SDS011;2297;51.442;6.996;2022-07-29T12:13:03;6.45;;;3.20;;
4569;SDS011;2297;51.442;6.996;2022-07-29T12:15:31;5.97;;;3.30;;
4569;SDS011;2297;51.442;6.996;2022-07-29T12:17:57;6.15;;;2.65;;
4569;SDS011;2297;51.442;6.996;2022-07-29T12:20:25;5.57;;;2.97;;
4569;SDS011;2297;51.442;6.996;2022-07-29T12:22:52;8.65;;;3.40;;
4569;SDS011;2297;51.442;6.996;2022-07-29T12:25:20;13.02;;;3.75;;
4569;SDS011;2297;51.442;6.996;2022-07-29T12:27:57;9.50;;;4.07;;
4569;SDS011;2297;51.442;6.996;2022-07-29T12:30:33;5.57;;;2.70;;
4569;SDS011;2297;51.442;6.996;2022-07-29T12:33:09;6.10;;;2.83;;
4569;SDS011;2297;51.442;6.996;2022-07-29T12:35:41;6.80;;;2.97;;
4569;SDS011;2297;51.442;6.996;2022-07-29T12:38:09;6.95;;;2.83;;
4569;SDS011;2297;51.442;6.996;2022-07-29T12:40:37;10.77;;;3.22;;
4569;SDS011;2297;51.442;6.996;2022-07-29T12:43:04;7.93;;;3.53;;
4569;SDS011;2297;51.442;6.996;2022-07-29T12:45:33;7.28;;;3.33;;
4569;SDS011;2297;51.442;6.996;2022-07-29T12:48:00;9.77;;;3.63;;
4569;SDS011;2297;51.442;6.996;2022-07-29T12:50:27;8.52;;;3.88;;
4569;SDS011;2297;51.442;6.996;2022-07-29T12:53:07;8.73;;;3.95;;
4569;SDS011;2297;51.442;6.996;2022-07-29T12:55:39;11.68;;;3.22;;
4569;SDS011;2297;51.442;6.996;2022-07-29T12:58:10;9.20;;;3.40;;
4569;SDS011;2297;51.442;6.996;2022-07-29T13:00:38;6.60;;;3.00;;
4569;SDS011;2297;51.442;6.996;2022-07-29T13:03:04;4.68;;;2.80;;
4569;SDS011;2297;51.442;6.996;2022-07-29T13:05:41;9.63;;;3.38;;
4569;SDS011;2297;51.442;6.996;2022-07-29T13:08:10;6.38;;;2.70;;
4569;SDS011;2297;51.442;6.996;2022-07-29T13:10:37;6.25;;;2.95;;
4569;SDS011;2297;51.442;6.996;2022-07-29T13:13:06;8.25;;;3.05;;
4569;SDS011;2297;51.442;6.996;2022-07-29T13:15:35;7.90;;;2.95;;
4569;SDS011;2297;51.442;6.996;2022-07-29T13:18:03;7.30;;;2.47;;
4569;SDS011;2297;51.442;6.996;2022-07-29T13:20:31;5.38;;;2.92;;
4569;SDS011;2297;51.442;6.996;2022-07-29T13:23:16;6.35;;;3.20;;
4569;SDS011;2297;51.442;6.996;2022-07-29T13:25:43;6.57;;;3.42;;
4569;SDS011;2297;51.442;6.996;2022-07-29T13:28:10;8.82;;;2.60;;
4569;SDS011;2297;51.442;6.996;2022-07-29T13:30:36;8.77;;;4.32;;
4569;SDS011;2297;51.442;6.996;2022-07-29T13:33:05;20.05;;;10.52;;
4569;SDS011;2297;51.442;6.996;2022-07-29T13:35:31;9.13;;;5.20;;
4569;SDS011;2297;51.442;6.996;2022-07-29T13:37:58;7.10;;;3.63;;
4569;SDS011;2297;51.442;6.996;2022-07-29T13:40:25;8.63;;;3.47;;
4569;SDS011;2297;51.442;6.996;2022-07-29T13:42:54;6.35;;;3.00;;
4569;SDS011;2297;51.442;6.996;2022-07-29T13:45:20;8.07;;;3.30;;
4569;SDS011;2297;51.442;6.996;2022-07-29T13:47:47;7.05;;;3.22;;
4569;SDS011;2297;51.442;6.996;2022-07-29T13:50:15;5.68;;;3.00;;
4569;SDS011;2297;51.442;6.996;2022-07-29T13:52:42;8.20;;;2.88;;
4569;SDS011;2297;51.442;6.996;2022-07-29T13:55:08;9.20;;;3.35;;
4569;SDS011;2297;51.442;6.996;2022-07-29T13:57:35;6.10;;;2.67;;
4569;SDS011;2297;51.442;6.996;2022-07-29T14:00:02;6.68;;;3.20;;
4569;SDS011;2297;51.442;6.996;2022-07-29T14:02:29;4.13;;;3.10;;
4569;SDS011;2297;51.442;6.996;2022-07-29T14:04:56;6.10;;;2.90;;
4569;SDS011;2297;51.442;6.996;2022-07-29T14:07:24;10.35;;;5.20;;
4569;SDS011;2297;51.442;6.996;2022-07-29T14:09:50;5.78;;;3.65;;
4569;SDS011;2297;51.442;6.996;2022-07-29T14:12:17;4.97;;;2.72;;
4569;SDS011;2297;51.442;6.996;2022-07-29T14:14:44;9.18;;;3.28;;
4569;SDS011;2297;51.442;6.996;2022-07-29T14:17:11;8.25;;;2.97;;
4569;SDS011;2297;51.442;6.996;2022-07-29T14:19:37;5.45;;;2.80;;
4569;SDS011;2297;51.442;6.996;2022-07-29T14:22:04;6.28;;;2.75;;
4569;SDS011;2297;51.442;6.996;2022-07-29T14:24:33;7.90;;;3.00;;
4569;SDS011;2297;51.442;6.996;2022-07-29T14:27:00;4.80;;;2.90;;
4569;SDS011;2297;51.442;6.996;2022-07-29T14:29:27;7.50;;;2.83;;
4569;SDS011;2297;51.442;6.996;2022-07-29T14:31:54;7.05;;;3.08;;
4569;SDS011;2297;51.442;6.996;2022-07-29T14:34:20;8.38;;;2.70;;
4569;SDS011;2297;51.442;6.996;2022-07-29T14:36:47;7.28;;;3.67;;
4569;SDS011;2297;51.442;6.996;2022-07-29T14:39:14;5.35;;;2.95;;
4569;SDS011;2297;51.442;6.996;2022-07-29T14:41:43;4.30;;;2.38;;
4569;SDS011;2297;51.442;6.996;2022-07-29T14:44:09;5.13;;;2.70;;
4569;SDS011;2297;51.442;6.996;2022-07-29T14:46:36;7.72;;;3.20;;
4569;SDS011;2297;51.442;6.996;2022-07-29T14:49:03;4.85;;;3.03;;
4569;SDS011;2297;51.442;6.996;2022-07-29T14:51:30;6.88;;;3.42;;
4569;SDS011;2297;51.442;6.996;2022-07-29T14:53:57;7.70;;;3.78;;
4569;SDS011;2297;51.442;6.996;2022-07-29T14:56:23;6.55;;;3.38;;
4569;SDS011;2297;51.442;6.996;2022-07-29T14:58:51;6.95;;;2.80;;
4569;SDS011;2297;51.442;6.996;2022-07-29T15:01:18;17.75;;;7.72;;
4569;SDS011;2297;51.442;6.996;2022-07-29T15:03:45;8.27;;;3.45;;
4569;SDS011;2297;51.442;6.996;2022-07-29T15:06:11;8.88;;;3.45;;
4569;SDS011;2297;51.442;6.996;2022-07-29T15:08:38;6.43;;;3.03;;
4569;SDS011;2297;51.442;6.996;2022-07-29T15:11:05;6.32;;;2.85;;
4569;SDS011;2297;51.442;6.996;2022-07-29T15:13:32;6.40;;;3.15;;
4569;SDS011;2297;51.442;6.996;2022-07-29T15:16:01;6.45;;;2.53;;
4569;SDS011;2297;51.442;6.996;2022-07-29T15:18:27;7.75;;;2.90;;
4569;SDS011;2297;51.442;6.996;2022-07-29T15:20:54;5.30;;;2.60;;
4569;SDS011;2297;51.442;6.996;2022-07-29T15:23:21;7.63;;;2.70;;
4569;SDS011;2297;51.442;6.996;2022-07-29T15:25:47;4.22;;;2.20;;
4569;SDS011;2297;51.442;6.996;2022-07-29T15:28:14;5.93;;;2.45;;
4569;SDS011;2297;51.442;6.996;2022-07-29T15:30:41;5.50;;;2.42;;
4569;SDS011;2297;51.442;6.996;2022-07-29T15:33:09;6.20;;;2.85;;
4569;SDS011;2297;51.442;6.996;2022-07-29T15:35:35;4.80;;;2.50;;
4569;SDS011;2297;51.442;6.996;2022-07-29T15:38:02;4.85;;;3.00;;
4569;SDS011;2297;51.442;6.996;2022-07-29T15:40:29;5.13;;;2.33;;
4569;SDS011;2297;51.442;6.996;2022-07-29T15:42:56;4.50;;;2.40;;
4569;SDS011;2297;51.442;6.996;2022-07-29T15:45:25;5.15;;;2.55;;
4569;SDS011;2297;51.442;6.996;2022-07-29T15:47:52;5.68;;;2.60;;
4569;SDS011;2297;51.442;6.996;2022-07-29T15:50:20;8.13;;;2.40;;
4569;SDS011;2297;51.442;6.996;2022-07-29T15:52:47;6.68;;;2.72;;
4569;SDS011;2297;51.442;6.996;2022-07-29T15:55:14;4.68;;;2.45;;